Portada
METAR-TAF:

METAR-TAF

Aeropuertos :

Diyarbakır, Turquía

latitud: 37-53N, longitud: 040-11E, altitud: 686 m

Observación

El informe se hizo hace 41 minutos, a las 00:50 UTC
Viento 5 kt del norte
Temperatura 9°C
Humedad 93%
Presión 1019 hPa
Visibilidad 10 km o más
sin nubes por debajo de 1500 m y sin presencia de cumulonimbus.

METAR: LTCC 260050Z 01005KT CAVOK 09/08 Q1019 NOSIG RMK RWY16 28004KT

Hora: 04:31 (01:31 UTC)

Pronóstico

El informe se hizo hace 2 horas y 51 minutos, a las 22:40 UTC
Pronóstico válido del 26 a las 00 UTC al 26 a las 24 UTC
Viento 2 kt con dirección variable
Visibilidad 10 km o más
sin nubes por debajo de 1500 m y sin presencia de cumulonimbus.

TAF: LTCC 252240Z 2600/2624 VRB02KT CAVOK

Observaciones y pronósticos meteorológicos de más de 4000 aeropuertos (mensajes METAR y TAF).

Los puntos amarillos y rojos representan las estaciones disponibles.

Ponga el ratón en el punto deseado para ver el nombre de la estación.

Haga clic para ver las observaciones y los pronósticos meteorológicos.

Para cambiar el mapa : haga clic en los botones verdes con una cruz de color negro para hacer un zoom, en el botón verde con un guión para alejar o en las flechas verdes para mapas adyacentes.


METAR-TAF: